Time;durP1;ratioP1;P1;durP2;ratioP2;P2;SDS_P1;SDS_P2;PMS_P1;PMS_P2;Temp;Humidity;BMP_temperature;BMP_pressure;BME280_temperature;BME280_humidity;BME280_pressure;Samples;Min_cycle;Max_cycle;Signal;HPM_P1;HPM_P2
2022/05/04 00:01:52;;;;;;;6.40;4.70;;;10.30;99.90;;;9.78;100.00;97131.13;5034517;28;20468;-50
2022/05/04 00:04:18;;;;;;;5.20;4.70;;;10.30;99.90;;;9.87;100.00;97151.84;5031180;28;20033;-49
2022/05/04 00:06:43;;;;;;;9.20;4.78;;;10.20;99.90;;;9.87;100.00;97145.69;5034861;28;20424;-50
2022/05/04 00:09:09;;;;;;;6.03;4.80;;;10.30;99.90;;;9.88;100.00;97143.00;5030078;28;20119;-47
2022/05/04 00:11:35;;;;;;;5.95;4.80;;;10.30;99.90;;;9.92;100.00;97141.13;5035500;28;20040;-48
2022/05/04 00:14:01;;;;;;;5.57;4.65;;;10.30;99.90;;;9.79;100.00;97121.44;5035715;28;20526;-48
2022/05/04 00:16:26;;;;;;;4.50;4.10;;;10.30;99.90;;;9.92;100.00;97139.34;5034866;28;20555;-48
2022/05/04 00:18:52;;;;;;;5.22;4.53;;;10.30;99.90;;;9.90;100.00;97132.41;5034506;28;20036;-51
2022/05/04 00:21:18;;;;;;;5.00;4.50;;;10.30;99.90;;;9.89;100.00;97135.97;5034273;28;20455;-49
2022/05/04 00:23:43;;;;;;;6.65;4.60;;;10.30;99.90;;;9.89;100.00;97136.84;5032828;28;20029;-51
2022/05/04 00:26:09;;;;;;;5.03;4.53;;;10.30;99.90;;;9.89;100.00;97134.19;5032848;28;20029;-50
2022/05/04 00:28:35;;;;;;;5.22;4.63;;;10.30;99.90;;;9.89;100.00;97144.75;5029905;28;20036;-48
2022/05/04 00:31:00;;;;;;;6.25;5.30;;;10.30;99.90;;;9.83;100.00;97129.16;5036955;28;20427;-49
2022/05/04 00:33:26;;;;;;;5.95;4.60;;;10.30;99.90;;;9.85;100.00;97137.00;5031737;28;20364;-48
2022/05/04 00:35:52;;;;;;;8.98;5.13;;;10.30;99.90;;;9.82;100.00;97134.50;5036670;28;20473;-47
2022/05/04 00:38:17;;;;;;;5.40;4.80;;;10.20;99.90;;;9.82;100.00;97131.88;5033260;28;20033;-47
2022/05/04 00:40:43;;;;;;;4.90;4.40;;;10.20;99.90;;;9.82;100.00;97137.97;5036284;28;20036;-49
2022/05/04 00:43:25;;;;;;;5.80;4.95;;;10.20;99.90;;;9.80;100.00;97137.19;5034287;28;20024;-47
2022/05/04 00:45:51;;;;;;;5.22;4.53;;;10.20;99.90;;;9.77;100.00;97141.72;5031022;28;20344;-49
2022/05/04 00:48:18;;;;;;;5.60;4.97;;;10.20;99.90;;;9.73;100.00;97136.56;5033794;28;20794;-50
2022/05/04 00:50:45;;;;;;;5.30;4.80;;;10.10;99.90;;;9.73;100.00;97138.34;5038552;28;20120;-49
2022/05/04 00:53:12;;;;;;;7.28;4.97;;;10.10;99.90;;;9.68;100.00;97132.38;5015005;28;20032;-48
2022/05/04 00:55:38;;;;;;;5.45;4.82;;;10.10;99.90;;;9.67;100.00;97139.44;5034783;28;20067;-48
2022/05/04 01:00:51;;;;;;;6.07;5.00;;;10.10;99.90;;;9.63;100.00;97127.28;5034469;28;20179;-49
2022/05/04 01:03:17;;;;;;;5.95;4.65;;;10.10;99.90;;;9.67;100.00;97126.28;5015812;28;20941;-51
2022/05/04 01:05:43;;;;;;;5.82;4.90;;;10.00;99.90;;;9.66;100.00;97124.53;5039289;28;20029;-49
2022/05/04 01:08:09;;;;;;;7.72;4.95;;;10.10;99.90;;;9.67;100.00;97120.13;5036318;28;20032;-48
2022/05/04 01:13:05;;;;;;;6.93;5.22;;;10.00;99.90;;;9.63;100.00;97123.78;4995707;28;20042;-57
2022/05/04 01:15:30;;;;;;;5.60;5.05;;;10.00;99.90;;;9.59;100.00;97122.19;4993641;28;20038;-57
2022/05/04 01:17:56;;;;;;;8.02;5.28;;;10.00;99.90;;;9.57;100.00;97124.88;4999160;28;20026;-57
2022/05/04 01:20:24;;;;;;;5.45;4.60;;;10.00;99.90;;;9.57;100.00;97124.03;5001446;28;20495;-57
2022/05/04 01:22:50;;;;;;;5.95;5.35;;;10.00;99.90;;;9.54;100.00;97119.72;5018518;28;20037;-57
2022/05/04 01:25:16;;;;;;;6.35;5.40;;;10.00;99.90;;;9.54;100.00;97122.34;5017108;28;20039;-57
2022/05/04 01:27:41;;;;;;;6.20;4.95;;;10.00;99.90;;;9.43;100.00;97109.59;5019174;28;20037;-57
2022/05/04 01:30:08;;;;;;;5.72;5.10;;;9.90;99.90;;;9.52;100.00;97129.47;5015721;28;20169;-57
2022/05/04 01:32:34;;;;;;;7.03;5.03;;;9.90;99.90;;;9.48;100.00;97139.25;5017374;28;20053;-57
2022/05/04 01:34:59;;;;;;;6.10;5.50;;;9.90;99.90;;;9.31;100.00;97117.94;5020897;28;20478;-57
2022/05/04 01:37:25;;;;;;;5.78;5.00;;;9.90;99.90;;;9.41;100.00;97137.75;5015834;28;20025;-57
2022/05/04 01:39:51;;;;;;;5.15;4.65;;;9.90;99.90;;;9.41;100.00;97139.53;5019508;28;20167;-57
2022/05/04 01:42:17;;;;;;;6.90;5.30;;;9.80;99.90;;;9.38;100.00;97142.25;5016268;28;20021;-57
2022/05/04 01:44:45;;;;;;;5.97;5.03;;;9.80;99.90;;;9.32;100.00;97145.97;5017686;28;20064;-57
2022/05/04 01:47:12;;;;;;;6.35;4.90;;;9.70;99.90;;;9.27;100.00;97151.41;5018478;28;20087;-57
2022/05/04 01:49:38;;;;;;;5.20;4.70;;;9.70;99.90;;;9.23;100.00;97143.69;5018411;28;20084;-57
2022/05/04 01:52:05;;;;;;;7.85;4.80;;;9.60;99.90;;;9.12;100.00;97136.16;5020442;28;20095;-57
2022/05/04 01:54:30;;;;;;;5.68;5.07;;;9.60;99.90;;;9.08;100.00;97139.81;5016331;28;20080;-58
2022/05/04 01:56:56;;;;;;;5.85;5.00;;;9.50;99.90;;;9.04;100.00;97135.56;5017957;28;20030;-57
2022/05/04 01:59:22;;;;;;;5.82;5.25;;;9.50;99.90;;;9.01;100.00;97149.69;4996660;28;20041;-58
2022/05/04 02:01:48;;;;;;;7.18;5.50;;;9.50;99.90;;;8.93;100.00;97142.06;5017466;28;21103;-57
2022/05/04 02:04:14;;;;;;;5.68;5.13;;;9.40;99.90;;;8.97;100.00;97150.69;5009910;28;20043;-57
2022/05/04 02:06:40;;;;;;;7.28;5.70;;;9.40;99.90;;;9.00;100.00;97152.38;5016605;28;20033;-57
2022/05/04 02:09:06;;;;;;;6.57;5.60;;;9.40;99.90;;;8.87;100.00;97121.25;4994588;28;20286;-57
2022/05/04 02:11:33;;;;;;;7.00;5.65;;;9.40;99.90;;;9.03;100.00;97142.63;5016371;28;20477;-57
2022/05/04 02:13:59;;;;;;;7.35;6.28;;;9.50;99.90;;;9.05;100.00;97134.66;5000909;28;20386;-57
2022/05/04 02:16:25;;;;;;;6.93;5.65;;;9.50;99.90;;;9.11;100.00;97142.34;5017941;28;20032;-57
2022/05/04 02:18:51;;;;;;;7.22;5.93;;;9.50;99.90;;;9.15;100.00;97136.03;5016004;28;20029;-57
2022/05/04 02:21:17;;;;;;;7.68;5.80;;;9.60;99.90;;;9.20;100.00;97143.78;5018427;28;20030;-57
2022/05/04 02:23:43;;;;;;;6.35;5.60;;;9.60;99.90;;;9.22;100.00;97137.53;5015087;28;20034;-57
2022/05/04 02:26:10;;;;;;;7.10;5.80;;;9.60;99.90;;;9.24;100.00;97126.97;5018309;28;20041;-57
2022/05/04 02:28:36;;;;;;;8.07;5.80;;;9.70;99.90;;;9.28;100.00;97133.84;5015563;28;20033;-57
2022/05/04 02:31:01;;;;;;;7.00;5.65;;;9.70;99.90;;;9.31;100.00;97139.88;5020816;28;20031;-57
2022/05/04 02:33:28;;;;;;;6.57;5.70;;;9.80;99.90;;;9.32;100.00;97132.81;5015932;28;20061;-58
2022/05/04 02:38:38;;;;;;;7.68;5.90;;;9.80;99.90;;;9.39;100.00;97131.69;5016500;28;20040;-57
2022/05/04 02:41:04;;;;;;;7.45;6.13;;;9.90;99.90;;;9.41;100.00;97131.63;5018731;28;20033;-57
2022/05/04 02:43:30;;;;;;;8.60;6.60;;;9.90;99.90;;;9.45;100.00;97138.50;5015411;28;20029;-58
2022/05/04 02:45:58;;;;;;;7.75;6.65;;;9.90;99.90;;;9.46;100.00;97129.69;5013974;28;20028;-57
2022/05/04 02:48:24;;;;;;;10.00;6.90;;;10.00;99.90;;;9.53;100.00;97142.56;5014769;28;20025;-57
2022/05/04 02:50:49;;;;;;;8.68;6.85;;;10.00;99.90;;;9.54;100.00;97143.41;5019683;28;20036;-57
2022/05/04 02:53:15;;;;;;;8.93;6.95;;;10.00;99.90;;;9.62;100.00;97141.38;5015569;28;20042;-58
2022/05/04 02:55:41;;;;;;;11.00;6.80;;;10.10;99.90;;;9.66;100.00;97137.69;5020381;28;20560;-57
2022/05/04 02:58:06;;;;;;;9.15;6.78;;;10.10;99.90;;;9.71;100.00;97137.53;5016670;28;20405;-57
2022/05/04 03:00:32;;;;;;;10.18;6.78;;;10.20;99.90;;;9.73;100.00;97136.56;5016102;28;20075;-57
2022/05/04 03:02:58;;;;;;;8.88;7.50;;;10.20;99.90;;;9.75;100.00;97133.88;5018637;28;20099;-57
2022/05/04 03:05:25;;;;;;;10.50;8.27;;;10.20;99.90;;;9.78;100.00;97138.16;5017242;28;20063;-58
2022/05/04 03:07:51;;;;;;;10.93;7.38;;;10.20;99.90;;;9.80;100.00;97136.31;5019383;28;20364;-57
2022/05/04 03:10:17;;;;;;;10.43;6.85;;;10.30;99.90;;;9.81;100.00;97138.03;5020915;28;20041;-57
2022/05/04 03:12:43;;;;;;;8.85;6.93;;;10.30;99.90;;;9.81;100.00;97135.41;5019078;28;20457;-58
2022/05/04 03:15:10;;;;;;;9.20;6.65;;;10.30;99.90;;;9.80;100.00;97134.56;5011351;28;20036;-57
2022/05/04 03:17:35;;;;;;;9.48;6.80;;;10.30;99.90;;;9.80;100.00;97134.56;5017561;28;20036;-58
2022/05/04 03:20:02;;;;;;;10.13;6.32;;;10.30;99.90;;;9.83;100.00;97134.41;5016612;28;20029;-57
2022/05/04 03:22:29;;;;;;;11.88;6.55;;;10.30;99.90;;;9.84;100.00;97132.66;5018461;28;20700;-57
2022/05/04 03:24:55;;;;;;;7.45;6.60;;;10.30;99.90;;;9.82;100.00;97129.22;5018205;28;20067;-57
2022/05/04 03:27:21;;;;;;;10.05;6.70;;;10.30;99.90;;;9.83;100.00;97133.56;5016925;28;20108;-57
2022/05/04 03:29:47;;;;;;;7.10;6.40;;;10.30;99.90;;;9.85;100.00;97137.88;5017036;28;20040;-57
2022/05/04 03:32:13;;;;;;;9.07;6.80;;;10.30;99.90;;;9.81;100.00;97132.78;5016326;28;20065;-57
2022/05/04 03:34:38;;;;;;;7.40;5.93;;;10.30;99.90;;;9.85;100.00;97137.00;5014113;28;20048;-57
2022/05/04 03:37:05;;;;;;;7.13;5.93;;;10.30;99.90;;;9.84;100.00;97136.16;5015795;28;20033;-57
2022/05/04 03:39:31;;;;;;;8.07;6.32;;;10.30;99.90;;;9.86;100.00;97136.94;5015053;28;20691;-57
2022/05/04 03:41:57;;;;;;;8.88;6.07;;;10.30;99.90;;;9.88;100.00;97136.88;5018279;28;20642;-58
2022/05/04 03:44:23;;;;;;;6.72;6.03;;;10.30;99.90;;;9.88;100.00;97135.09;5018733;28;20045;-57
2022/05/04 03:46:51;;;;;;;7.03;5.82;;;10.30;99.90;;;9.89;100.00;97136.84;5014705;28;20365;-57
2022/05/04 03:49:22;;;;;;;7.55;6.10;;;10.30;99.90;;;9.89;100.00;97131.56;4999159;28;20160;-57
2022/05/04 03:51:49;;;;;;;7.32;5.97;;;10.40;99.90;;;9.92;100.00;97125.31;5013777;28;20033;-57
2022/05/04 03:54:15;;;;;;;7.40;5.95;;;10.30;99.90;;;9.78;100.00;97101.28;5016077;28;20830;-57
2022/05/04 03:56:41;;;;;;;7.70;5.80;;;10.30;99.90;;;9.93;100.00;97133.16;5012981;28;20038;-56
2022/05/04 03:59:08;;;;;;;9.05;5.93;;;10.40;99.90;;;9.96;100.00;97132.19;5015868;28;20235;-57
2022/05/04 04:01:34;;;;;;;7.20;5.78;;;10.40;99.90;;;9.98;100.00;97130.34;5010552;28;20048;-57
2022/05/04 04:04:00;;;;;;;6.43;5.45;;;10.50;99.90;;;9.99;100.00;97126.78;5013992;28;20455;-57
2022/05/04 04:06:26;;;;;;;12.20;5.90;;;10.40;99.90;;;10.03;100.00;97131.03;5013217;28;20025;-57
2022/05/04 04:08:52;;;;;;;7.78;6.13;;;10.50;99.90;;;10.05;100.00;97131.84;5011418;28;20146;-58
2022/05/04 04:11:19;;;;;;;8.02;5.63;;;10.50;99.90;;;10.09;100.00;97122.03;5012516;28;20065;-57
2022/05/04 04:13:46;;;;;;;10.38;5.95;;;10.50;99.90;;;10.12;100.00;97127.16;5014252;28;20489;-57
2022/05/04 04:16:11;;;;;;;7.63;5.80;;;10.60;99.90;;;10.15;100.00;97134.09;5011142;28;20041;-57
2022/05/04 04:18:37;;;;;;;5.78;5.10;;;10.60;99.90;;;10.17;100.00;97140.16;5013086;28;20025;-57
2022/05/04 04:23:47;;;;;;;5.78;4.97;;;10.60;99.90;;;10.24;100.00;97136.38;5008804;28;20095;-57
2022/05/04 04:26:13;;;;;;;6.65;5.78;;;10.70;99.90;;;10.26;100.00;97138.00;5010427;28;20029;-57
2022/05/04 04:28:39;;;;;;;7.57;5.60;;;10.70;99.90;;;10.26;100.00;97140.66;5005668;28;20032;-57
2022/05/04 04:31:08;;;;;;;8.10;5.88;;;10.70;99.90;;;10.32;100.00;97144.88;5008702;28;20091;-57
2022/05/04 04:33:34;;;;;;;7.75;5.68;;;10.70;99.90;;;10.34;100.00;97137.75;5009462;28;20111;-57
2022/05/04 04:36:01;;;;;;;7.05;6.00;;;10.80;99.90;;;10.38;100.00;97139.34;5013902;28;20026;-57
2022/05/04 04:38:27;;;;;;;7.28;5.22;;;10.80;99.90;;;10.40;100.00;97145.41;5010633;28;20063;-56
2022/05/04 04:40:53;;;;;;;5.72;4.70;;;10.80;99.90;;;10.30;100.00;97126.44;5013644;28;20120;-57
2022/05/04 04:43:19;;;;;;;5.30;4.80;;;10.90;99.90;;;10.43;100.00;97142.66;5009122;28;20171;-57
2022/05/04 04:45:49;;;;;;;8.32;5.00;;;10.90;99.90;;;10.52;100.00;97151.13;4990619;28;20534;-57
2022/05/04 04:48:16;;;;;;;4.65;4.20;;;10.90;99.90;;;10.56;100.00;97152.72;5013594;28;20036;-57
2022/05/04 04:50:51;;;;;;;5.82;4.30;;;11.00;99.90;;;10.61;100.00;97161.28;5013889;28;20043;-57
2022/05/04 04:53:17;;;;;;;5.88;4.60;;;11.10;99.90;;;10.67;100.00;97156.59;5013745;28;20033;-57
2022/05/04 04:55:44;;;;;;;4.88;4.05;;;11.10;99.90;;;10.72;100.00;97158.22;5006182;28;20073;-57
2022/05/04 04:58:10;;;;;;;5.45;4.20;;;11.20;99.90;;;10.77;100.00;97158.88;5011034;28;20044;-57
2022/05/04 05:00:36;;;;;;;4.72;4.10;;;11.20;99.90;;;10.80;100.00;97156.09;4996842;28;20030;-57
2022/05/04 05:03:03;;;;;;;4.47;3.90;;;11.20;99.90;;;10.82;100.00;97157.75;5006984;28;20456;-57
2022/05/04 05:05:28;;;;;;;4.78;4.28;;;11.20;99.90;;;10.81;100.00;97163.94;4997180;28;20120;-58
2022/05/04 05:07:54;;;;;;;6.25;4.70;;;11.30;99.90;;;10.81;100.00;97163.09;5014118;28;20036;-57
2022/05/04 05:10:20;;;;;;;5.80;4.95;;;11.30;99.90;;;10.80;100.00;97166.66;5010610;28;20095;-57
2022/05/04 05:12:45;;;;;;;6.78;5.03;;;11.20;99.90;;;10.82;100.00;97168.31;5012551;28;20473;-56
2022/05/04 05:17:55;;;;;;;4.80;4.30;;;11.30;99.90;;;10.88;100.00;97172.47;5010566;28;20041;-57
2022/05/04 05:20:21;;;;;;;5.53;4.22;;;11.30;99.90;;;10.93;100.00;97177.53;5010189;28;20029;-57
2022/05/04 05:22:47;;;;;;;5.35;4.47;;;11.30;99.90;;;10.98;100.00;97175.56;5010819;28;20874;-57
2022/05/04 05:25:13;;;;;;;5.78;4.82;;;11.40;99.90;;;11.03;100.00;97173.59;5013821;28;20079;-57
2022/05/04 05:27:38;;;;;;;6.05;4.90;;;11.40;99.90;;;11.10;100.00;97175.06;5013808;28;20042;-57
2022/05/04 05:30:05;;;;;;;5.32;4.70;;;11.50;99.90;;;11.17;100.00;97175.66;5016708;28;20041;-57
2022/05/04 05:32:31;;;;;;;6.20;5.30;;;11.60;99.90;;;11.24;100.00;97179.75;5006891;28;20048;-57
2022/05/04 05:34:56;;;;;;;7.20;5.50;;;11.60;99.90;;;11.34;100.00;97181.09;5006999;28;20037;-57
2022/05/04 05:37:22;;;;;;;6.68;5.60;;;11.70;99.90;;;11.41;100.00;97177.25;5010145;28;20030;-57
2022/05/04 05:39:48;;;;;;;4.95;4.35;;;11.80;99.90;;;11.50;100.00;97178.59;5011554;28;20033;-57
2022/05/04 05:42:15;;;;;;;6.47;4.75;;;11.90;99.90;;;11.61;100.00;97179.00;5015836;28;20057;-57
2022/05/04 05:44:41;;;;;;;6.63;4.70;;;12.00;99.90;;;11.73;100.00;97174.09;5010476;28;20139;-56
2022/05/04 05:47:07;;;;;;;5.63;4.80;;;12.10;99.90;;;11.81;100.00;97185.19;5006166;28;20544;-57
2022/05/04 05:49:33;;;;;;;5.20;4.70;;;12.20;99.90;;;11.95;100.00;97177.50;5010988;28;20033;-57
2022/05/04 05:51:59;;;;;;;7.15;5.28;;;12.30;99.90;;;12.09;100.00;97183.94;5017306;28;20069;-57
2022/05/04 05:54:24;;;;;;;6.20;5.15;;;12.40;99.90;;;12.22;100.00;97180.66;5011186;28;21542;-57
2022/05/04 05:56:51;;;;;;;7.32;5.63;;;12.60;99.90;;;12.40;100.00;97180.72;5012900;28;20041;-57
2022/05/04 05:59:16;;;;;;;9.25;7.35;;;12.70;99.90;;;12.53;100.00;97180.97;5013599;28;20025;-57
2022/05/04 06:01:42;;;;;;;11.75;6.30;;;12.90;99.90;;;12.69;100.00;97184.59;5015370;28;20331;-57
2022/05/04 06:04:08;;;;;;;6.90;6.03;;;13.10;99.90;;;12.87;100.00;97180.19;5013565;28;20137;-57
2022/05/04 06:06:34;;;;;;;9.32;6.90;;;13.20;99.90;;;13.01;100.00;97179.50;5006364;28;20033;-57
2022/05/04 06:09:00;;;;;;;7.45;6.10;;;13.40;99.90;;;13.16;100.00;97180.50;5016363;28;20033;-57
2022/05/04 06:11:26;;;;;;;8.18;6.68;;;13.60;99.90;;;13.34;100.00;97189.34;5015690;28;20036;-57
2022/05/04 06:13:53;;;;;;;9.43;6.80;;;13.70;99.90;;;13.45;100.00;97197.56;5016070;28;20485;-56
2022/05/04 06:16:19;;;;;;;11.88;6.85;;;13.90;99.90;;;13.55;100.00;97182.91;5016246;28;20453;-57
2022/05/04 06:18:45;;;;;;;9.10;7.00;;;14.00;99.90;;;13.70;100.00;97193.66;5017836;28;20041;-57
2022/05/04 06:21:11;;;;;;;8.23;6.43;;;14.20;99.90;;;13.83;100.00;97191.19;5012900;28;20056;-57
2022/05/04 06:23:36;;;;;;;6.60;5.70;;;14.30;99.90;;;13.93;100.00;97198.59;5018205;28;20492;-57
2022/05/04 06:26:02;;;;;;;10.23;6.55;;;14.40;99.90;;;14.09;100.00;97195.97;5014783;28;20057;-57
2022/05/04 06:28:28;;;;;;;8.93;6.22;;;14.60;99.90;;;14.23;100.00;97203.19;5012670;28;20032;-57
2022/05/04 06:36:22;;;;;;;8.57;6.70;;;15.00;99.90;;;14.52;97.82;97204.19;5012265;28;20052;-57
2022/05/04 06:38:48;;;;;;;9.15;6.18;;;15.00;99.90;;;14.59;98.13;97204.75;5015985;28;22718;-57
2022/05/04 06:41:14;;;;;;;8.65;6.15;;;15.10;99.90;;;14.69;98.18;97208.59;5015623;28;20032;-57
2022/05/04 06:43:40;;;;;;;10.75;6.32;;;15.10;99.90;;;14.72;97.11;97222.66;5017437;28;20834;-57
2022/05/04 06:46:06;;;;;;;10.90;6.07;;;15.20;99.90;;;14.72;95.65;97201.41;5014188;28;20040;-57
2022/05/04 06:48:32;;;;;;;8.27;6.10;;;15.20;99.90;;;14.76;95.32;97211.75;5007883;28;20025;-57
2022/05/04 06:50:58;;;;;;;11.18;6.82;;;15.20;99.90;;;14.76;93.02;97213.56;5019981;28;20674;-57
2022/05/04 06:53:23;;;;;;;9.13;5.70;;;15.20;99.90;;;14.77;94.32;97215.25;4995445;28;20061;-57
2022/05/04 06:55:49;;;;;;;8.90;5.13;;;15.20;99.90;;;14.76;94.60;97216.22;5011957;28;20033;-57
2022/05/04 06:58:15;;;;;;;9.05;6.00;;;15.20;99.90;;;14.74;93.04;97223.41;5017520;28;20022;-57
2022/05/04 07:00:40;;;;;;;6.78;5.07;;;15.20;99.90;;;14.72;92.09;97223.50;5011884;28;20140;-56
2022/05/04 07:03:06;;;;;;;8.07;5.40;;;15.20;99.90;;;14.68;91.84;97222.81;5013571;28;20043;-57
2022/05/04 07:05:32;;;;;;;7.03;5.13;;;15.10;99.90;;;14.70;93.15;97215.63;5015378;28;20592;-56
2022/05/04 07:07:58;;;;;;;11.27;5.25;;;15.20;99.90;;;14.75;90.33;97220.69;5018978;28;20037;-57
2022/05/04 07:10:24;;;;;;;6.30;4.85;;;15.20;99.90;;;14.78;90.15;97220.47;5013897;28;20041;-57
2022/05/04 07:12:50;;;;;;;6.13;4.63;;;15.20;99.90;;;14.81;89.04;97216.81;5010189;22;20058;-47
2022/05/04 07:15:16;;;;;;;7.13;4.63;;;15.20;99.90;;;14.69;86.31;97224.50;4986008;28;20038;-51
2022/05/04 07:17:43;;;;;;;5.63;4.00;;;15.10;99.90;;;14.62;87.08;97225.78;5002384;28;20089;-52
2022/05/04 07:20:09;;;;;;;7.47;4.65;;;15.10;99.90;;;14.65;86.28;97227.44;4987429;28;20034;-49
2022/05/04 07:22:36;;;;;;;4.32;3.65;;;15.00;99.90;;;14.75;88.16;97222.44;4980005;28;20023;-49
2022/05/04 07:25:03;;;;;;;5.15;3.88;;;15.10;99.90;;;14.83;87.22;97221.06;4971808;28;20467;-50
2022/05/04 07:27:28;;;;;;;5.70;4.63;;;15.20;99.90;;;14.85;87.48;97223.66;4966983;28;20056;-50
2022/05/04 07:29:54;;;;;;;7.75;4.40;;;15.20;99.90;;;14.86;88.48;97217.41;4974631;28;20414;-49
2022/05/04 07:32:20;;;;;;;6.00;4.40;;;15.20;99.90;;;14.97;89.59;97225.59;4975187;28;20042;-46
2022/05/04 07:34:45;;;;;;;5.15;4.32;;;15.30;99.90;;;15.15;89.74;97226.34;4969136;28;20030;-49
2022/05/04 07:37:11;;;;;;;4.72;3.67;;;15.40;99.90;;;15.23;87.00;97229.38;4969830;28;20060;-49
2022/05/04 07:42:25;;;;;;;5.45;3.63;;;15.70;99.90;;;15.58;87.54;97237.09;4973818;28;20534;-47
2022/05/04 07:44:59;;;;;;;4.30;3.50;;;15.90;99.90;;;15.75;87.87;97235.25;4965879;28;20046;-51
2022/05/04 07:47:35;;;;;;;4.65;3.17;;;16.00;99.90;;;15.90;85.32;97236.13;4971109;28;20393;-48
2022/05/04 07:50:03;;;;;;;4.32;3.22;;;16.10;99.90;;;16.00;83.02;97235.47;4967583;28;20468;-50
2022/05/04 07:52:29;;;;;;;4.00;2.95;;;16.30;99.90;;;16.15;81.35;97236.34;4970330;28;22587;-57
2022/05/04 07:54:55;;;;;;;4.85;3.17;;;16.50;99.90;;;16.27;77.02;97241.84;4969013;28;20117;-57
2022/05/04 07:57:21;;;;;;;5.10;3.38;;;16.60;99.90;;;16.28;72.19;97244.41;4991225;28;20422;-57
2022/05/04 08:04:16;;;;;;;3.13;2.67;;;16.60;99.90;;;16.41;75.28;97239.16;4975196;28;20870;-57
2022/05/04 08:05:21;;;;;;;4.90;2.60;;;16.90;99.90;;;16.52;71.23;97236.66;4966225;28;20091;-57
2022/05/04 08:07:46;;;;;;;4.18;2.50;;;16.90;99.90;;;16.56;68.63;97251.53;4970254;28;20053;-57
2022/05/04 08:10:13;;;;;;;3.78;2.70;;;16.90;99.90;;;16.59;69.54;97242.47;4968941;28;20026;-57
2022/05/04 08:12:38;;;;;;;4.30;2.78;;;16.90;99.90;;;16.58;69.76;97241.63;4973977;28;20271;-57
2022/05/04 08:15:05;;;;;;;4.70;2.22;;;17.00;99.90;;;16.46;69.18;97228.25;4971481;28;20046;-57
2022/05/04 08:17:31;;;;;;;3.40;2.40;;;16.90;99.90;;;16.61;69.35;97254.72;4970414;28;20085;-57
2022/05/04 08:19:58;;;;;;;6.40;2.97;;;16.90;99.90;;;16.56;69.32;97248.84;4972584;28;20639;-57
2022/05/04 08:22:23;;;;;;;4.10;2.72;;;17.00;99.90;;;16.53;69.44;97258.84;4971190;28;20096;-57
2022/05/04 08:24:49;;;;;;;4.63;3.03;;;16.90;99.90;;;16.50;70.79;97245.72;4968351;28;20042;-57
2022/05/04 08:27:15;;;;;;;4.40;2.67;;;16.90;99.90;;;16.66;72.26;97254.44;4971390;28;20656;-57
2022/05/04 08:29:41;;;;;;;2.70;2.25;;;16.90;99.90;;;16.78;73.23;97248.34;4975844;28;20037;-57
2022/05/04 08:32:07;;;;;;;2.90;2.58;;;17.10;99.90;;;17.00;70.69;97249.63;4976891;28;20068;-57
2022/05/04 08:34:32;;;;;;;3.45;2.65;;;17.20;99.90;;;17.01;72.85;97256.66;4974907;28;20066;-57
2022/05/04 08:36:58;;;;;;;3.22;2.88;;;17.20;99.90;;;17.03;74.22;97257.44;4976583;28;20041;-57
2022/05/04 08:39:24;;;;;;;4.03;2.80;;;17.30;99.90;;;17.03;76.50;97246.78;4972919;28;20455;-57
2022/05/04 08:41:52;;;;;;;3.42;2.28;;;17.30;99.90;;;17.07;76.11;97263.41;4969626;28;20034;-57
2022/05/04 08:44:18;;;;;;;4.47;2.75;;;17.30;99.90;;;16.95;76.74;97260.56;4971448;28;20071;-57
2022/05/04 08:46:45;;;;;;;7.65;2.83;;;17.30;99.90;;;16.77;76.62;97251.94;4986229;28;20494;-57
2022/05/04 08:49:13;;;;;;;3.97;2.95;;;17.10;99.90;;;16.66;76.40;97270.41;4969441;28;20433;-57
2022/05/04 08:51:41;;;;;;;3.88;2.83;;;17.00;99.90;;;16.56;77.59;97270.16;4969961;28;20038;-57
2022/05/04 08:54:08;;;;;;;4.07;2.97;;;16.90;99.90;;;16.47;76.76;97270.72;4974688;28;20038;-57
2022/05/04 08:56:34;;;;;;;4.32;3.10;;;16.90;99.90;;;16.42;77.81;97272.84;4970789;28;20030;-57
2022/05/04 08:59:05;;;;;;;4.57;3.17;;;16.70;99.90;;;16.32;79.31;97259.22;4974004;28;20038;-57
2022/05/04 09:01:37;;;;;;;3.85;2.83;;;16.70;99.90;;;16.32;79.85;97264.53;4974762;28;20042;-57
2022/05/04 09:04:03;;;;;;;4.57;2.80;;;16.70;99.90;;;16.31;79.11;97259.31;4972601;28;20054;-57
2022/05/04 09:06:32;;;;;;;3.28;2.75;;;16.70;99.90;;;16.22;78.35;97256.28;4974130;28;20031;-56
2022/05/04 09:09:13;;;;;;;5.47;3.00;;;16.60;99.90;;;16.18;78.79;97269.88;4973864;28;20089;-57
2022/05/04 09:11:43;;;;;;;5.80;3.40;;;16.50;99.90;;;16.10;78.06;97267.69;4971816;28;20056;-57
2022/05/04 09:14:15;;;;;;;4.00;2.85;;;16.50;99.90;;;15.96;79.52;97249.06;4971567;28;20265;-57
2022/05/04 09:16:42;;;;;;;;;;;16.30;99.90;;;15.89;80.67;97253.88;4968047;28;20030;-57
2022/05/04 09:19:11;;;;;;;4.25;3.42;;;16.20;99.90;;;15.75;84.34;97257.38;4971508;28;19945;-58
2022/05/04 09:21:39;;;;;;;4.13;3.30;;;16.10;99.90;;;15.62;86.25;97256.38;4967028;28;20435;-58
2022/05/04 09:24:05;;;;;;;8.18;3.38;;;16.00;99.90;;;15.56;88.37;97262.03;4971953;28;20034;-58
2022/05/04 09:26:38;;;;;;;8.23;4.53;;;15.90;99.90;;;15.39;91.46;97255.91;4974827;28;20502;-58
2022/05/04 09:29:06;;;;;;;5.38;4.03;;;15.80;99.90;;;15.28;92.40;97253.03;4974590;28;20030;-57
2022/05/04 09:31:32;;;;;;;7.07;5.22;;;15.60;99.90;;;15.13;97.22;97249.50;4974567;28;20042;-57
2022/05/04 09:34:08;;;;;;;10.65;4.72;;;15.50;99.90;;;14.97;100.00;97252.16;4973040;28;20038;-57
2022/05/04 09:36:38;;;;;;;5.85;4.85;;;15.40;99.90;;;14.84;100.00;97251.13;4974867;28;20038;-58
2022/05/04 09:45:09;;;;;;;10.27;6.13;;;15.10;99.90;;;14.81;100.00;97244.22;4975945;28;20033;-57
2022/05/04 09:47:40;;;;;;;7.80;5.30;;;15.20;99.90;;;15.06;100.00;97253.44;4971108;28;20073;-57
2022/05/04 09:50:08;;;;;;;7.70;4.90;;;15.40;99.90;;;15.41;100.00;97251.38;4972554;28;21526;-57
2022/05/04 09:52:49;;;;;;;8.05;5.97;;;15.70;99.90;;;15.84;100.00;97254.19;4975106;28;20038;-57
2022/05/04 09:55:25;;;;;;;11.82;7.97;;;16.20;99.90;;;16.13;100.00;97243.56;4976731;28;20066;-57
2022/05/04 09:57:55;;;;;;;7.82;7.03;;;16.60;99.90;;;16.67;100.00;97245.50;4971978;28;20185;-57
2022/05/04 10:00:24;;;;;;;9.40;6.57;;;16.90;99.90;;;17.21;100.00;97247.38;4972306;28;20030;-57
2022/05/04 10:02:52;;;;;;;11.45;8.57;;;17.60;99.90;;;17.66;100.00;97247.06;4972464;28;20092;-57
2022/05/04 10:05:20;;;;;;;16.45;9.43;;;18.10;99.90;;;17.93;100.00;97244.34;4977316;28;20034;-57
2022/05/04 10:07:52;;;;;;;13.52;8.10;;;18.50;99.90;;;18.15;100.00;97251.69;4987047;28;20506;-57
2022/05/04 10:10:20;;;;;;;12.30;7.68;;;18.70;99.90;;;18.12;88.45;97251.91;4973396;28;20590;-57
2022/05/04 10:12:47;;;;;;;7.10;6.22;;;18.70;99.90;;;18.27;92.44;97245.50;4975059;28;20030;-57
2022/05/04 10:15:18;;;;;;;8.57;6.82;;;18.70;99.90;;;18.49;93.81;97244.81;4976225;28;20030;-57
2022/05/04 10:18:07;;;;;;;11.20;7.68;;;18.90;99.90;;;18.60;91.19;97243.19;4969491;28;20038;-57
2022/05/04 10:20:50;;;;;;;7.20;6.50;;;19.10;99.90;;;18.80;91.44;97247.94;4997673;28;20510;-57
2022/05/04 10:23:24;;;;;;;8.55;6.55;;;19.20;99.90;;;18.71;85.92;97245.94;4980244;28;20027;-57
2022/05/04 10:25:51;;;;;;;8.88;7.30;;;19.40;99.90;;;18.83;82.60;97247.75;4992461;28;20402;-57
2022/05/04 10:28:17;;;;;;;6.90;5.82;;;19.50;99.90;;;19.22;82.97;97240.44;4971411;28;20093;-57
2022/05/04 10:30:56;;;;;;;8.40;6.10;;;19.60;99.90;;;19.54;80.95;97236.31;4973055;28;20122;-57
2022/05/04 10:33:31;;;;;;;11.32;6.80;;;19.90;99.90;;;19.55;83.82;97232.66;4971844;28;20035;-57
2022/05/04 10:35:58;;;;;;;8.40;6.88;;;20.10;99.90;;;19.84;77.52;97222.44;4969259;28;20115;-57
2022/05/04 10:38:35;;;;;;;7.22;6.53;;;20.30;99.90;;;20.08;80.60;97226.84;4979136;28;20034;-57
2022/05/04 10:41:06;;;;;;;10.30;6.95;;;20.50;99.90;;;20.32;81.24;97227.59;4973246;28;20034;-56
2022/05/04 10:43:48;;;;;;;17.90;7.70;;;20.60;99.90;;;20.19;75.96;97225.03;4973313;28;20030;-57
2022/05/04 10:46:17;;;;;;;8.45;6.70;;;20.70;99.90;;;20.33;76.98;97226.63;4972828;28;20022;-57
2022/05/04 10:48:50;;;;;;;6.25;5.30;;;20.90;99.90;;;20.57;75.64;97218.44;4973984;28;20161;-57